createdAt,value
2018-04-29T00:00:03.929Z,99.99
2018-04-29T00:01:04.503Z,99.99
2018-04-29T00:02:05.058Z,99.99
2018-04-29T00:03:05.614Z,99.99
2018-04-29T00:04:06.149Z,99.99
2018-04-29T00:05:06.690Z,99.99
2018-04-29T00:06:07.235Z,99.99
2018-04-29T00:07:07.782Z,99.99
2018-04-29T00:08:08.330Z,99.99
2018-04-29T00:09:08.866Z,99.99
2018-04-29T00:10:09.413Z,99.99
2018-04-29T00:11:09.964Z,99.99
2018-04-29T00:12:10.504Z,99.99
2018-04-29T00:13:11.048Z,99.99
2018-04-29T00:14:11.595Z,99.99
2018-04-29T00:15:12.135Z,99.99
2018-04-29T00:16:12.684Z,99.99
2018-04-29T00:17:13.228Z,99.99
2018-04-29T00:18:13.766Z,99.99
2018-04-29T00:19:14.308Z,99.99
2018-04-29T00:20:14.850Z,99.99
2018-04-29T00:21:15.395Z,99.99
2018-04-29T00:22:15.942Z,99.99
2018-04-29T00:23:16.478Z,99.99
2018-04-29T00:24:17.020Z,99.99
2018-04-29T00:25:17.561Z,99.99
2018-04-29T00:26:18.112Z,99.99
2018-04-29T00:27:18.654Z,99.99
2018-04-29T00:28:19.198Z,99.99
2018-04-29T00:29:19.739Z,99.99
2018-04-29T00:30:20.283Z,99.99
2018-04-29T00:31:20.825Z,99.99
2018-04-29T00:32:21.371Z,99.99
2018-04-29T00:33:21.913Z,99.99
2018-04-29T00:34:22.457Z,99.99
2018-04-29T00:35:22.995Z,99.99
2018-04-29T00:36:23.537Z,99.99
2018-04-29T00:37:24.082Z,99.99
2018-04-29T00:38:24.628Z,99.99
2018-04-29T00:39:25.173Z,99.99
2018-04-29T00:40:25.711Z,99.99
2018-04-29T00:41:26.256Z,99.99
2018-04-29T00:42:26.810Z,99.99
2018-04-29T00:43:27.341Z,99.99
2018-04-29T00:44:27.889Z,99.99
2018-04-29T00:45:28.438Z,99.99
2018-04-29T00:46:28.982Z,99.99
2018-04-29T00:47:29.525Z,99.99
2018-04-29T00:48:30.067Z,99.99
2018-04-29T00:49:30.607Z,99.99
2018-04-29T00:50:31.153Z,99.99
2018-04-29T00:51:31.694Z,99.99
2018-04-29T00:52:32.236Z,99.99
2018-04-29T00:53:32.781Z,99.99
2018-04-29T00:54:33.320Z,99.99
2018-04-29T00:55:33.859Z,99.99
2018-04-29T00:56:34.403Z,99.99
2018-04-29T00:57:34.942Z,99.99
2018-04-29T00:58:35.485Z,99.99
2018-04-29T00:59:36.030Z,99.99
2018-04-29T01:00:36.571Z,99.99
2018-04-29T01:01:37.114Z,99.99
2018-04-29T01:02:37.659Z,99.99
2018-04-29T01:03:38.206Z,99.99
2018-04-29T01:04:38.750Z,99.99
2018-04-29T01:05:39.297Z,99.99
2018-04-29T01:06:39.841Z,99.99
2018-04-29T01:07:40.386Z,99.99
2018-04-29T01:08:40.932Z,99.99
2018-04-29T01:09:41.476Z,99.99
2018-04-29T01:10:42.020Z,99.99
2018-04-29T01:11:42.566Z,99.99
2018-04-29T01:12:43.114Z,99.99
2018-04-29T01:13:43.657Z,99.99
2018-04-29T01:14:44.206Z,99.99
2018-04-29T01:15:44.750Z,99.99
2018-04-29T01:16:45.290Z,99.99
2018-04-29T01:17:45.834Z,99.99
2018-04-29T01:18:46.374Z,99.99
2018-04-29T01:19:46.917Z,99.99
2018-04-29T01:20:47.463Z,99.99
2018-04-29T01:21:48.010Z,99.99
2018-04-29T01:22:48.558Z,99.99
2018-04-29T01:23:49.095Z,99.99
2018-04-29T01:24:49.634Z,99.99
2018-04-29T01:25:50.180Z,99.99
2018-04-29T01:26:50.726Z,99.99
2018-04-29T01:27:51.265Z,99.99
2018-04-29T01:28:51.808Z,99.99
2018-04-29T01:29:52.352Z,99.99
2018-04-29T01:30:52.896Z,99.99
2018-04-29T01:31:53.442Z,99.99
2018-04-29T01:32:53.983Z,99.99
2018-04-29T01:33:54.527Z,99.99
2018-04-29T01:34:55.070Z,99.99
2018-04-29T01:35:55.619Z,99.99
2018-04-29T01:36:56.187Z,99.99
2018-04-29T01:37:56.697Z,99.99
2018-04-29T01:38:57.235Z,99.99
2018-04-29T01:39:57.781Z,99.99
2018-04-29T01:40:58.327Z,99.99
2018-04-29T01:41:58.870Z,99.99
2018-04-29T01:42:59.417Z,99.99
2018-04-29T01:43:59.961Z,99.99
2018-04-29T01:45:00.506Z,99.99
2018-04-29T01:46:01.055Z,99.99
2018-04-29T01:47:01.596Z,99.99
2018-04-29T01:48:02.134Z,99.99
2018-04-29T01:49:02.674Z,99.99
2018-04-29T01:50:03.219Z,99.99
2018-04-29T01:51:03.762Z,99.99
2018-04-29T01:52:04.313Z,99.99
2018-04-29T01:53:04.852Z,99.99
2018-04-29T01:54:05.395Z,99.99
2018-04-29T01:55:05.942Z,99.99
2018-04-29T01:56:06.481Z,99.99
2018-04-29T01:57:07.025Z,99.99
2018-04-29T01:58:07.569Z,99.99
2018-04-29T01:59:08.111Z,99.99
2018-04-29T02:00:08.657Z,99.99
2018-04-29T02:01:09.201Z,99.99
2018-04-29T02:02:09.746Z,99.99
2018-04-29T02:03:10.290Z,99.99
2018-04-29T02:04:10.837Z,99.99
2018-04-29T02:05:11.377Z,99.99
2018-04-29T02:06:11.920Z,99.99
2018-04-29T02:07:12.459Z,99.99
2018-04-29T02:08:13.003Z,99.99
2018-04-29T02:09:13.544Z,99.99
2018-04-29T02:10:14.084Z,99.99
2018-04-29T02:11:14.623Z,99.99
2018-04-29T02:12:15.170Z,99.99
2018-04-29T02:13:15.712Z,99.99
2018-04-29T02:14:16.259Z,99.99
2018-04-29T02:15:16.805Z,99.99
2018-04-29T02:16:17.354Z,99.99
2018-04-29T02:17:17.891Z,99.99
2018-04-29T02:18:18.430Z,99.99
2018-04-29T02:19:18.972Z,99.99
2018-04-29T02:20:19.513Z,99.99
2018-04-29T02:21:20.055Z,99.99
2018-04-29T02:22:20.594Z,99.99
2018-04-29T02:23:21.143Z,99.99
2018-04-29T02:24:21.684Z,99.99
2018-04-29T02:25:22.228Z,99.99
2018-04-29T02:26:22.766Z,99.99
2018-04-29T02:27:23.310Z,99.99
2018-04-29T02:28:23.856Z,99.99
2018-04-29T02:29:24.400Z,99.99
2018-04-29T02:30:24.943Z,99.99
2018-04-29T02:31:25.508Z,99.99
2018-04-29T02:32:26.025Z,99.99
2018-04-29T02:33:26.564Z,99.99
2018-04-29T02:34:27.116Z,99.99
2018-04-29T02:35:27.661Z,99.99
2018-04-29T02:36:28.202Z,99.99
2018-04-29T02:37:28.749Z,99.99
2018-04-29T02:38:29.295Z,99.99
2018-04-29T02:39:29.842Z,99.99
2018-04-29T02:40:30.385Z,99.99
2018-04-29T02:41:30.929Z,99.99
2018-04-29T02:42:31.469Z,99.99
2018-04-29T02:43:32.012Z,99.99
2018-04-29T02:44:32.555Z,99.99
2018-04-29T02:45:33.106Z,99.99
2018-04-29T02:46:33.646Z,99.99
2018-04-29T02:47:34.193Z,99.99
2018-04-29T02:48:34.727Z,99.99
2018-04-29T02:49:35.275Z,99.99
2018-04-29T02:50:35.817Z,99.99
2018-04-29T02:51:36.357Z,99.99
2018-04-29T02:52:36.904Z,99.99
2018-04-29T02:53:37.451Z,99.99
2018-04-29T02:54:37.992Z,99.99
2018-04-29T02:55:38.537Z,99.99
2018-04-29T02:56:39.078Z,99.99
2018-04-29T02:57:39.618Z,99.99
2018-04-29T02:58:40.160Z,99.99
2018-04-29T02:59:40.704Z,99.99
2018-04-29T03:00:41.251Z,99.99
2018-04-29T03:01:41.795Z,99.99
2018-04-29T03:02:42.337Z,99.99
2018-04-29T03:03:42.883Z,99.99
2018-04-29T03:04:43.473Z,99.99
2018-04-29T03:05:43.967Z,99.99
2018-04-29T03:06:44.515Z,99.99
2018-04-29T03:07:45.056Z,99.99
2018-04-29T03:08:45.598Z,99.99
2018-04-29T03:09:46.136Z,99.99
2018-04-29T03:10:46.676Z,99.99
2018-04-29T03:11:47.230Z,99.99
2018-04-29T03:12:47.764Z,99.99
2018-04-29T03:13:48.347Z,99.99
2018-04-29T03:14:48.857Z,99.99
2018-04-29T03:15:49.400Z,99.99
2018-04-29T03:16:49.946Z,99.99
2018-04-29T03:17:50.488Z,99.99
2018-04-29T03:18:51.038Z,99.99
2018-04-29T03:19:51.574Z,99.99
2018-04-29T03:20:52.119Z,99.99
2018-04-29T03:21:52.660Z,99.99
2018-04-29T03:22:53.204Z,99.99
2018-04-29T03:23:53.744Z,99.99
2018-04-29T03:24:54.293Z,99.99
2018-04-29T03:25:54.837Z,99.99
2018-04-29T03:26:55.378Z,99.99
2018-04-29T03:27:55.921Z,99.99
2018-04-29T03:28:56.464Z,99.99
2018-04-29T03:29:57.009Z,99.99
2018-04-29T03:30:57.546Z,99.99
2018-04-29T03:31:58.093Z,99.99
2018-04-29T03:32:58.636Z,99.99
2018-04-29T03:33:59.180Z,99.99
2018-04-29T03:34:59.719Z,99.99
2018-04-29T03:36:00.265Z,99.99
2018-04-29T03:37:00.810Z,99.99
2018-04-29T03:38:01.357Z,99.99
2018-04-29T03:39:01.903Z,99.99
2018-04-29T03:40:02.448Z,99.99
2018-04-29T03:41:02.991Z,99.99
2018-04-29T03:42:03.537Z,99.99
2018-04-29T03:43:04.080Z,99.99
2018-04-29T03:44:04.626Z,99.99
2018-04-29T03:45:05.171Z,99.99
2018-04-29T03:46:05.716Z,99.99
2018-04-29T03:47:06.262Z,99.99
2018-04-29T03:48:06.799Z,99.99
2018-04-29T03:49:07.347Z,99.99
2018-04-29T03:50:07.888Z,99.99
2018-04-29T03:51:08.437Z,99.99
2018-04-29T03:52:08.984Z,99.99
2018-04-29T03:53:09.531Z,99.99
2018-04-29T03:54:10.070Z,99.99
2018-04-29T03:55:10.613Z,99.99
2018-04-29T03:56:11.158Z,99.99
2018-04-29T03:57:11.703Z,99.99
2018-04-29T03:58:12.242Z,99.99
2018-04-29T03:59:12.782Z,99.99
2018-04-29T04:00:13.329Z,99.99
2018-04-29T04:01:13.879Z,99.99
2018-04-29T04:02:14.421Z,99.99
2018-04-29T04:03:14.959Z,99.99
2018-04-29T04:04:15.501Z,99.99
2018-04-29T04:05:16.051Z,99.99
2018-04-29T04:06:16.594Z,99.99
2018-04-29T04:07:17.140Z,99.99
2018-04-29T04:08:17.683Z,99.99
2018-04-29T04:09:18.237Z,99.99
2018-04-29T04:10:18.774Z,99.99
2018-04-29T04:11:19.322Z,99.99
2018-04-29T04:12:19.869Z,99.99
2018-04-29T04:13:20.415Z,99.99
2018-04-29T04:14:20.961Z,99.99
2018-04-29T04:15:21.511Z,99.99
2018-04-29T04:16:22.054Z,99.99
2018-04-29T04:17:22.598Z,99.99
2018-04-29T04:18:23.144Z,99.99
2018-04-29T04:19:23.693Z,99.99
2018-04-29T04:20:24.241Z,99.99
2018-04-29T04:21:24.788Z,99.99
2018-04-29T04:22:25.333Z,99.99
2018-04-29T04:23:25.877Z,99.99
2018-04-29T04:24:26.425Z,99.99
2018-04-29T04:25:26.972Z,99.99
2018-04-29T04:26:27.517Z,99.99
2018-04-29T04:27:28.066Z,99.99
2018-04-29T04:28:28.615Z,99.99
2018-04-29T04:29:29.160Z,99.99
2018-04-29T04:30:29.707Z,99.99
2018-04-29T04:31:30.254Z,99.99
2018-04-29T04:32:30.801Z,99.99
2018-04-29T04:33:31.352Z,99.99
2018-04-29T04:34:31.902Z,99.99
2018-04-29T04:35:32.447Z,99.99
2018-04-29T04:36:32.996Z,99.99
2018-04-29T04:37:33.545Z,99.99
2018-04-29T04:38:34.090Z,99.99
2018-04-29T04:39:34.638Z,99.99
2018-04-29T04:40:35.185Z,99.99
2018-04-29T04:41:35.728Z,99.99
2018-04-29T04:42:36.285Z,99.99
2018-04-29T04:43:36.827Z,99.99
2018-04-29T04:44:37.380Z,99.99
2018-04-29T04:45:37.950Z,99.99
2018-04-29T04:46:38.474Z,99.99
2018-04-29T04:47:39.021Z,99.99
2018-04-29T04:48:39.566Z,99.99
2018-04-29T04:49:40.117Z,99.99
2018-04-29T04:50:40.743Z,99.99
2018-04-29T04:51:41.210Z,99.99
2018-04-29T04:52:41.759Z,99.99
2018-04-29T04:53:42.308Z,99.99
2018-04-29T04:54:42.851Z,99.99
2018-04-29T04:55:43.402Z,99.99
2018-04-29T04:56:43.949Z,99.99
2018-04-29T04:57:44.494Z,99.99
2018-04-29T04:58:45.044Z,99.99
2018-04-29T04:59:45.589Z,99.99
2018-04-29T05:00:46.145Z,99.99
2018-04-29T05:01:46.699Z,99.99
2018-04-29T05:02:47.247Z,99.99
2018-04-29T05:03:47.800Z,99.99
2018-04-29T05:04:48.350Z,99.99
2018-04-29T05:05:48.902Z,99.99
2018-04-29T05:06:49.445Z,99.99
2018-04-29T05:07:49.994Z,99.99
2018-04-29T05:08:50.543Z,99.99
2018-04-29T05:09:51.089Z,99.99
2018-04-29T05:10:51.639Z,99.99
2018-04-29T05:11:52.190Z,99.99
2018-04-29T05:12:52.736Z,99.99
2018-04-29T05:13:53.290Z,99.99
2018-04-29T05:14:53.839Z,99.99
2018-04-29T05:15:54.385Z,99.99
2018-04-29T05:16:54.935Z,99.99
2018-04-29T05:17:55.485Z,99.99
2018-04-29T05:18:56.037Z,99.99
2018-04-29T05:19:56.585Z,99.99
2018-04-29T05:20:57.135Z,99.99
2018-04-29T05:21:57.682Z,99.99
2018-04-29T05:22:58.226Z,99.99
2018-04-29T05:23:58.778Z,99.99
2018-04-29T05:24:59.328Z,99.99
2018-04-29T05:25:59.875Z,99.99
2018-04-29T05:27:00.425Z,99.99
2018-04-29T05:28:00.980Z,99.99
2018-04-29T05:29:01.532Z,99.99
2018-04-29T05:30:02.084Z,99.99
2018-04-29T05:31:02.630Z,99.99
2018-04-29T05:32:03.184Z,99.99
2018-04-29T05:33:03.738Z,99.99
2018-04-29T05:34:04.284Z,99.99
2018-04-29T05:35:04.837Z,99.99
2018-04-29T05:36:05.391Z,99.99
2018-04-29T05:37:05.940Z,99.99
2018-04-29T05:38:06.491Z,99.99
2018-04-29T05:39:07.041Z,99.99
2018-04-29T05:40:07.593Z,99.99
2018-04-29T05:41:08.141Z,99.99
2018-04-29T05:42:08.686Z,99.99
2018-04-29T05:43:09.234Z,99.99
2018-04-29T05:44:09.787Z,99.99
2018-04-29T05:45:10.341Z,99.99
2018-04-29T05:46:10.893Z,99.99
2018-04-29T05:47:11.451Z,99.99
2018-04-29T05:48:11.997Z,99.99
2018-04-29T05:49:12.540Z,99.99
2018-04-29T05:50:13.087Z,99.99
2018-04-29T05:51:13.640Z,99.99
2018-04-29T05:52:14.191Z,99.99
2018-04-29T05:53:14.741Z,99.99
2018-04-29T05:54:15.295Z,99.99
2018-04-29T05:55:15.847Z,99.99
2018-04-29T05:56:16.400Z,99.99
2018-04-29T05:57:16.950Z,99.99
2018-04-29T05:58:17.498Z,99.99
2018-04-29T05:59:18.052Z,99.99
2018-04-29T06:00:18.609Z,99.99
2018-04-29T06:01:19.155Z,99.99
2018-04-29T06:02:19.705Z,99.99
2018-04-29T06:03:20.254Z,99.99
2018-04-29T06:04:20.807Z,99.99
2018-04-29T06:05:21.354Z,99.99
2018-04-29T06:06:21.935Z,99.99
2018-04-29T06:07:22.454Z,99.99
2018-04-29T06:08:23.003Z,99.99
2018-04-29T06:09:23.556Z,99.99
2018-04-29T06:10:24.102Z,99.99
2018-04-29T06:11:24.660Z,99.99
2018-04-29T06:12:25.198Z,99.99
2018-04-29T06:13:25.748Z,99.99
2018-04-29T06:14:26.293Z,99.99
2018-04-29T06:15:26.846Z,99.99
2018-04-29T06:16:27.397Z,99.99
2018-04-29T06:17:27.947Z,99.99
2018-04-29T06:18:28.497Z,99.99
2018-04-29T06:19:29.041Z,99.99
2018-04-29T06:20:29.608Z,99.99
2018-04-29T06:21:30.137Z,99.99
2018-04-29T06:22:30.687Z,99.99
2018-04-29T06:23:31.240Z,99.99
2018-04-29T06:24:31.793Z,99.99
2018-04-29T06:25:32.344Z,99.99
2018-04-29T06:26:32.889Z,99.99
2018-04-29T06:27:33.435Z,99.99
2018-04-29T06:28:33.980Z,99.99
2018-04-29T06:29:34.530Z,99.99
2018-04-29T06:30:35.076Z,99.99
2018-04-29T06:31:35.626Z,99.99
2018-04-29T06:32:36.173Z,99.99
2018-04-29T06:33:36.726Z,99.99
2018-04-29T06:34:37.311Z,99.99
2018-04-29T06:35:37.827Z,99.99
2018-04-29T06:36:38.384Z,99.99
2018-04-29T06:37:38.938Z,99.99
2018-04-29T06:38:39.487Z,99.99
2018-04-29T06:39:40.039Z,99.99
2018-04-29T06:40:40.586Z,99.99
2018-04-29T06:41:41.139Z,99.99
2018-04-29T06:42:41.697Z,99.99
2018-04-29T06:43:42.246Z,99.99
2018-04-29T06:44:42.798Z,99.99
2018-04-29T06:45:43.355Z,99.99
2018-04-29T06:46:43.905Z,99.99
2018-04-29T06:47:44.460Z,99.99
2018-04-29T06:48:45.012Z,99.99
2018-04-29T06:49:45.560Z,99.99
2018-04-29T06:50:46.118Z,99.99
2018-04-29T06:51:46.670Z,99.99
2018-04-29T06:52:47.219Z,99.99
2018-04-29T06:53:47.769Z,99.99
2018-04-29T06:54:48.320Z,99.99
2018-04-29T06:55:48.868Z,99.99
2018-04-29T06:56:49.421Z,99.99
2018-04-29T06:57:49.973Z,99.99
2018-04-29T06:58:50.530Z,99.99
2018-04-29T06:59:51.085Z,99.99
2018-04-29T07:00:51.649Z,99.99
2018-04-29T07:01:52.193Z,99.99
2018-04-29T07:02:52.743Z,99.99
2018-04-29T07:03:53.298Z,99.99
2018-04-29T07:04:53.855Z,99.99
2018-04-29T07:05:54.409Z,99.99
2018-04-29T07:06:54.965Z,99.99
2018-04-29T07:07:55.527Z,99.99
2018-04-29T07:08:56.076Z,99.99
2018-04-29T07:09:56.629Z,99.99
2018-04-29T07:10:57.186Z,99.99
2018-04-29T07:11:57.742Z,99.99
2018-04-29T07:12:58.297Z,99.99
2018-04-29T07:13:58.851Z,99.99
2018-04-29T07:14:59.404Z,99.99
2018-04-29T07:15:59.954Z,99.99
2018-04-29T07:17:00.512Z,99.99
2018-04-29T07:18:01.065Z,99.99
2018-04-29T07:19:01.618Z,99.99
2018-04-29T07:20:02.254Z,99.99
2018-04-29T07:21:02.721Z,99.99
2018-04-29T07:22:03.275Z,99.99
2018-04-29T07:23:03.835Z,99.99
2018-04-29T07:24:04.382Z,99.99
2018-04-29T07:25:04.930Z,99.99
2018-04-29T07:26:05.517Z,99.99
2018-04-29T07:27:06.040Z,99.99
2018-04-29T07:28:06.595Z,99.99
2018-04-29T07:29:07.148Z,99.99
2018-04-29T07:30:07.703Z,99.99
2018-04-29T07:31:08.252Z,99.99
2018-04-29T07:32:08.808Z,99.99
2018-04-29T07:33:09.360Z,99.99
2018-04-29T07:34:09.945Z,99.99
2018-04-29T07:35:10.463Z,99.99
2018-04-29T07:36:11.016Z,99.99
2018-04-29T07:37:11.572Z,99.99
2018-04-29T07:38:12.126Z,99.99
2018-04-29T07:39:12.685Z,99.99
2018-04-29T07:40:13.303Z,99.99
2018-04-29T07:41:13.782Z,99.99
2018-04-29T07:42:14.335Z,99.99
2018-04-29T07:43:14.885Z,99.99
2018-04-29T07:44:15.443Z,99.99
2018-04-29T07:45:16.001Z,99.99
2018-04-29T07:46:16.550Z,99.99
2018-04-29T07:47:17.106Z,99.99
2018-04-29T07:48:17.648Z,99.99
2018-04-29T07:49:18.207Z,99.99
2018-04-29T07:50:18.757Z,99.99
2018-04-29T07:51:19.306Z,99.99
2018-04-29T07:52:19.957Z,99.99
2018-04-29T07:53:20.407Z,99.99
2018-04-29T07:54:20.960Z,99.99
2018-04-29T07:55:21.514Z,99.99
2018-04-29T07:56:22.069Z,99.99
2018-04-29T07:57:22.612Z,99.99
2018-04-29T07:58:23.175Z,99.99
2018-04-29T07:59:23.723Z,99.99
2018-04-29T08:00:24.275Z,99.99
2018-04-29T08:01:24.827Z,99.99
2018-04-29T08:02:25.380Z,99.99
2018-04-29T08:03:25.935Z,99.99
2018-04-29T08:04:26.484Z,99.99
2018-04-29T08:05:27.035Z,99.99
2018-04-29T08:06:27.584Z,99.99
2018-04-29T08:07:28.132Z,99.99
2018-04-29T08:08:28.689Z,99.99
2018-04-29T08:09:29.242Z,99.99
2018-04-29T08:10:29.795Z,99.99
2018-04-29T08:11:30.351Z,99.99
2018-04-29T08:12:30.904Z,99.99
2018-04-29T08:13:31.458Z,99.99
2018-04-29T08:14:32.019Z,99.99
2018-04-29T08:15:32.675Z,99.99
2018-04-29T08:16:33.122Z,99.99
2018-04-29T08:17:33.674Z,99.99
2018-04-29T08:18:34.228Z,99.99
2018-04-29T08:19:34.783Z,99.99
2018-04-29T08:20:35.341Z,99.99
2018-04-29T08:21:35.897Z,99.99
2018-04-29T08:22:36.456Z,99.99
2018-04-29T08:23:37.010Z,99.99
2018-04-29T08:24:37.563Z,99.99
2018-04-29T08:25:38.116Z,99.99
2018-04-29T08:26:38.669Z,99.99
2018-04-29T08:27:39.226Z,99.99
2018-04-29T08:28:39.784Z,99.99
2018-04-29T08:29:40.343Z,99.99
2018-04-29T08:30:40.899Z,99.99
2018-04-29T08:31:41.452Z,99.99
2018-04-29T08:32:42.005Z,99.99
2018-04-29T08:33:42.563Z,99.99
2018-04-29T08:34:43.117Z,99.99
2018-04-29T08:35:43.669Z,99.99
2018-04-29T08:36:44.224Z,99.99
2018-04-29T08:37:44.775Z,99.99
2018-04-29T08:38:45.332Z,99.99
2018-04-29T08:39:45.893Z,99.99
2018-04-29T08:40:46.438Z,99.99
2018-04-29T08:41:47.013Z,99.99
2018-04-29T08:42:47.561Z,99.99
2018-04-29T08:43:48.117Z,99.99
2018-04-29T08:44:48.676Z,99.99
2018-04-29T08:45:49.241Z,99.99
2018-04-29T08:46:49.785Z,99.99
2018-04-29T08:47:50.344Z,99.99
2018-04-29T08:48:50.918Z,99.99
2018-04-29T08:49:51.465Z,99.99
2018-04-29T08:50:52.023Z,99.99
2018-04-29T08:51:52.586Z,99.99
2018-04-29T08:52:53.144Z,99.99
2018-04-29T08:53:53.705Z,99.99
2018-04-29T08:54:54.349Z,99.99
2018-04-29T08:55:54.885Z,99.99
2018-04-29T08:56:55.379Z,99.99
2018-04-29T08:57:55.944Z,99.99
2018-04-29T08:58:56.507Z,98.81
2018-04-29T08:59:57.063Z,99.57
2018-04-29T09:00:57.617Z,98.81
2018-04-29T09:01:58.181Z,99.19
2018-04-29T09:02:58.744Z,99.99
2018-04-29T09:03:59.469Z,99.38
2018-04-29T09:04:59.872Z,99.10
2018-04-29T09:06:00.432Z,99.67
2018-04-29T09:07:00.990Z,98.81
2018-04-29T09:08:01.553Z,99.81
2018-04-29T09:09:02.111Z,98.47
2018-04-29T09:10:02.673Z,97.95
2018-04-29T09:11:03.236Z,95.17
2018-04-29T09:12:03.800Z,94.07
2018-04-29T09:13:04.361Z,93.11
2018-04-29T09:14:04.920Z,91.43
2018-04-29T09:15:05.487Z,91.05
2018-04-29T09:16:06.054Z,90.09
2018-04-29T09:17:06.616Z,89.47
2018-04-29T09:18:07.180Z,88.79
2018-04-29T09:19:07.748Z,87.84
2018-04-29T09:20:08.304Z,87.84
2018-04-29T09:21:08.863Z,87.78
2018-04-29T09:22:09.427Z,86.54
2018-04-29T09:23:09.987Z,86.92
2018-04-29T09:24:10.548Z,85.19
2018-04-29T09:25:11.110Z,85.19
2018-04-29T09:26:11.672Z,86.15
2018-04-29T09:27:12.236Z,86.54
2018-04-29T09:28:12.802Z,84.72
2018-04-29T09:29:13.365Z,85.83
2018-04-29T09:30:13.933Z,89.23
2018-04-29T09:31:14.497Z,91.38
2018-04-29T09:32:15.062Z,90.71
2018-04-29T09:33:15.628Z,88.07
2018-04-29T09:34:16.194Z,86.11
2018-04-29T09:35:16.763Z,86.97
2018-04-29T09:36:17.332Z,87.16
2018-04-29T09:37:17.946Z,87.21
2018-04-29T09:38:18.455Z,89.76
2018-04-29T09:39:19.015Z,91.19
2018-04-29T09:40:19.703Z,90.53
2018-04-29T09:41:20.129Z,90.72
2018-04-29T09:42:20.690Z,91.10
2018-04-29T09:43:21.254Z,90.96
2018-04-29T09:44:21.809Z,90.48
2018-04-29T09:45:22.363Z,91.53
2018-04-29T09:46:22.924Z,91.58
2018-04-29T09:47:23.481Z,91.92
2018-04-29T09:48:24.037Z,91.05
2018-04-29T09:49:24.599Z,91.25
2018-04-29T09:50:25.157Z,91.49
2018-04-29T09:51:25.721Z,91.72
2018-04-29T09:52:26.280Z,92.35
2018-04-29T09:53:26.840Z,92.25
2018-04-29T09:54:27.403Z,92.35
2018-04-29T09:55:27.964Z,89.37
2018-04-29T09:56:28.526Z,89.57
2018-04-29T09:57:29.088Z,90.95
2018-04-29T09:58:29.726Z,89.51
2018-04-29T09:59:30.201Z,90.28
2018-04-29T10:00:30.767Z,90.38
2018-04-29T10:01:31.331Z,88.94
2018-04-29T10:02:31.886Z,87.98
2018-04-29T10:03:32.446Z,90.19
2018-04-29T10:04:33.003Z,89.71
2018-04-29T10:05:33.613Z,90.38
2018-04-29T10:06:34.177Z,89.95
2018-04-29T10:07:34.739Z,90.53
2018-04-29T10:08:35.305Z,88.99
2018-04-29T10:09:35.947Z,90.05
2018-04-29T10:10:36.421Z,90.81
2018-04-29T10:11:36.982Z,91.00
2018-04-29T10:12:37.542Z,91.24
2018-04-29T10:13:38.102Z,91.05
2018-04-29T10:14:38.672Z,89.66
2018-04-29T10:15:39.221Z,88.70
2018-04-29T10:16:39.782Z,88.42
2018-04-29T10:17:40.340Z,89.57
2018-04-29T10:18:40.903Z,90.14
2018-04-29T10:19:41.466Z,90.53
2018-04-29T10:20:42.020Z,89.95
2018-04-29T10:21:42.577Z,90.62
2018-04-29T10:22:43.139Z,90.14
2018-04-29T10:23:43.698Z,90.05
2018-04-29T10:24:44.287Z,88.99
2018-04-29T10:25:44.816Z,90.72
2018-04-29T10:26:45.376Z,89.47
2018-04-29T10:27:45.938Z,90.62
2018-04-29T10:28:46.499Z,91.10
2018-04-29T10:29:47.058Z,91.29
2018-04-29T10:30:47.616Z,90.23
2018-04-29T10:31:48.180Z,91.19
2018-04-29T10:32:48.746Z,91.49
2018-04-29T10:33:49.293Z,92.06
2018-04-29T10:34:49.857Z,90.29
2018-04-29T10:35:50.439Z,91.19
2018-04-29T10:36:50.971Z,91.10
2018-04-29T10:37:51.526Z,91.00
2018-04-29T10:38:52.091Z,91.34
2018-04-29T10:39:52.648Z,90.67
2018-04-29T10:40:53.209Z,90.91
2018-04-29T10:41:53.771Z,90.19
2018-04-29T10:42:54.331Z,90.57
2018-04-29T10:43:54.893Z,90.86
2018-04-29T10:44:55.446Z,90.09
2018-04-29T10:45:56.005Z,90.67
2018-04-29T10:46:56.556Z,89.71
2018-04-29T10:47:57.115Z,89.51
2018-04-29T10:48:57.676Z,88.99
2018-04-29T10:49:58.235Z,89.37
2018-04-29T10:50:58.795Z,90.23
2018-04-29T10:51:59.359Z,89.47
2018-04-29T10:52:59.919Z,90.05
2018-04-29T10:54:00.481Z,91.19
2018-04-29T10:55:01.036Z,90.62
2018-04-29T10:56:01.592Z,90.81
2018-04-29T10:57:02.152Z,91.67
2018-04-29T10:58:02.712Z,91.67
2018-04-29T10:59:03.271Z,92.49
2018-04-29T11:00:03.832Z,91.63
2018-04-29T11:01:04.388Z,91.24
2018-04-29T11:02:04.948Z,90.86
2018-04-29T11:03:05.503Z,90.62
2018-04-29T11:04:06.066Z,90.95
2018-04-29T11:05:06.630Z,91.10
2018-04-29T11:06:07.180Z,91.00
2018-04-29T11:07:07.740Z,90.91
2018-04-29T11:08:08.298Z,91.10
2018-04-29T11:09:08.859Z,90.91
2018-04-29T11:10:09.420Z,91.05
2018-04-29T11:11:09.982Z,91.05
2018-04-29T11:12:10.539Z,91.34
2018-04-29T11:13:11.100Z,92.05
2018-04-29T11:14:11.663Z,91.62
2018-04-29T11:15:12.220Z,89.46
2018-04-29T11:16:12.787Z,87.49
2018-04-29T11:17:13.346Z,85.85
2018-04-29T11:18:13.911Z,85.18
2018-04-29T11:19:14.472Z,85.47
2018-04-29T11:20:15.026Z,85.14
2018-04-29T11:21:15.588Z,85.14
2018-04-29T11:22:16.237Z,85.33
2018-04-29T11:23:16.705Z,85.33
2018-04-29T11:24:17.264Z,85.47
2018-04-29T11:25:17.820Z,85.37
2018-04-29T11:26:18.385Z,85.37
2018-04-29T11:27:18.953Z,84.60
2018-04-29T11:28:19.511Z,85.37
2018-04-29T11:29:20.077Z,85.28
2018-04-29T11:30:20.634Z,84.94
2018-04-29T11:31:21.196Z,84.55
2018-04-29T11:32:21.763Z,84.26
2018-04-29T11:33:22.324Z,85.03
2018-04-29T11:34:22.888Z,85.17
2018-04-29T11:35:23.442Z,84.36
2018-04-29T11:36:23.999Z,83.59
2018-04-29T11:37:24.565Z,83.49
2018-04-29T11:38:25.123Z,84.17
2018-04-29T11:39:25.687Z,85.32
2018-04-29T11:40:26.278Z,85.99
2018-04-29T11:41:26.817Z,84.31
2018-04-29T11:42:27.375Z,84.84
2018-04-29T11:43:27.931Z,86.04
2018-04-29T11:44:28.490Z,85.02
2018-04-29T11:45:29.053Z,83.77
2018-04-29T11:46:29.616Z,82.56
2018-04-29T11:47:30.186Z,80.87
2018-04-29T11:48:30.754Z,81.10
2018-04-29T11:49:31.312Z,79.66
2018-04-29T11:50:31.878Z,77.15
2018-04-29T11:51:32.441Z,77.69
2018-04-29T11:52:33.005Z,79.19
2018-04-29T11:53:33.570Z,79.96
2018-04-29T11:54:34.132Z,80.58
2018-04-29T11:55:34.701Z,79.75
2018-04-29T11:56:35.267Z,77.67
2018-04-29T11:57:35.832Z,78.63
2018-04-29T11:58:36.396Z,77.58
2018-04-29T11:59:36.962Z,77.48
2018-04-29T12:00:37.526Z,78.25
2018-04-29T12:01:38.082Z,76.26
2018-04-29T12:02:38.689Z,76.03
2018-04-29T12:03:39.215Z,76.51
2018-04-29T12:04:39.779Z,76.90
2018-04-29T12:05:40.349Z,75.65
2018-04-29T12:06:40.917Z,75.65
2018-04-29T12:07:41.483Z,75.93
2018-04-29T12:08:42.055Z,76.28
2018-04-29T12:09:42.619Z,77.09
2018-04-29T12:10:43.185Z,77.33
2018-04-29T12:11:43.756Z,76.65
2018-04-29T12:12:44.320Z,75.59
2018-04-29T12:13:44.884Z,76.10
2018-04-29T12:14:45.446Z,74.85
2018-04-29T12:15:46.012Z,74.02
2018-04-29T12:16:46.577Z,74.02
2018-04-29T12:17:47.143Z,73.63
2018-04-29T12:18:47.712Z,75.34
2018-04-29T12:19:48.278Z,74.02
2018-04-29T12:20:48.846Z,73.15
2018-04-29T12:21:49.413Z,72.86
2018-04-29T12:22:49.977Z,75.34
2018-04-29T12:23:50.541Z,75.76
2018-04-29T12:24:51.107Z,73.38
2018-04-29T12:25:51.667Z,72.52
2018-04-29T12:26:52.240Z,72.32
2018-04-29T12:27:52.801Z,72.45
2018-04-29T12:28:53.365Z,71.00
2018-04-29T12:29:53.934Z,71.58
2018-04-29T12:30:54.506Z,72.36
2018-04-29T12:31:55.060Z,72.00
2018-04-29T12:32:55.628Z,71.91
2018-04-29T12:33:56.207Z,71.42
2018-04-29T12:34:56.767Z,71.46
2018-04-29T12:35:57.340Z,70.78
2018-04-29T12:36:57.911Z,69.24
2018-04-29T12:37:58.478Z,70.30
2018-04-29T12:38:59.047Z,71.40
2018-04-29T12:39:59.627Z,70.30
2018-04-29T12:41:00.190Z,69.72
2018-04-29T12:42:00.752Z,71.20
2018-04-29T12:43:01.327Z,71.59
2018-04-29T12:44:01.898Z,69.62
2018-04-29T12:45:02.467Z,70.43
2018-04-29T12:46:03.039Z,71.30
2018-04-29T12:47:03.595Z,69.75
2018-04-29T12:48:04.162Z,70.24
2018-04-29T12:49:04.730Z,71.20
2018-04-29T12:50:05.295Z,68.91
2018-04-29T12:51:05.856Z,68.88
2018-04-29T12:52:06.425Z,68.40
2018-04-29T12:53:07.006Z,68.43
2018-04-29T12:54:07.564Z,68.63
2018-04-29T12:55:08.131Z,68.82
2018-04-29T12:56:08.695Z,68.69
2018-04-29T12:57:09.263Z,69.98
2018-04-29T12:58:09.828Z,69.88
2018-04-29T12:59:10.392Z,71.14